createdAt,value
2018-12-27T00:00:21.709Z,70.93
2018-12-27T00:02:54.935Z,69.23
2018-12-27T00:05:26.013Z,76.97
2018-12-27T00:07:56.757Z,74.37
2018-12-27T00:10:27.522Z,67.47
2018-12-27T00:12:58.183Z,69.83
2018-12-27T00:15:28.959Z,71.57
2018-12-27T00:17:59.691Z,74.77
2018-12-27T00:20:30.459Z,70.80
2018-12-27T00:23:01.241Z,75.63
2018-12-27T00:25:32.098Z,73.43
2018-12-27T00:28:02.877Z,75.13
2018-12-27T00:30:33.841Z,66.70
2018-12-27T00:33:04.773Z,73.27
2018-12-27T00:35:35.757Z,78.43
2018-12-27T00:38:06.669Z,75.63
2018-12-27T00:40:37.507Z,76.23
2018-12-27T00:43:08.412Z,76.00
2018-12-27T00:45:39.303Z,70.27
2018-12-27T00:48:10.230Z,69.50
2018-12-27T00:50:41.082Z,83.13
2018-12-27T00:53:12.221Z,74.27
2018-12-27T00:55:43.137Z,70.47
2018-12-27T00:58:14.118Z,83.57
2018-12-27T01:00:45.065Z,80.57
2018-12-27T01:03:15.936Z,71.60
2018-12-27T01:05:46.831Z,72.63
2018-12-27T01:08:17.941Z,75.33
2018-12-27T01:10:48.856Z,70.83
2018-12-27T01:13:19.930Z,69.93
2018-12-27T01:15:50.863Z,68.47
2018-12-27T01:18:22.014Z,69.60
2018-12-27T01:20:52.946Z,72.37
2018-12-27T01:23:23.910Z,77.87
2018-12-27T01:25:54.862Z,77.63
2018-12-27T01:28:25.847Z,74.60
2018-12-27T01:30:57.161Z,75.60
2018-12-27T01:33:28.185Z,75.50
2018-12-27T01:35:59.182Z,80.60
2018-12-27T01:38:30.171Z,76.23
2018-12-27T01:41:01.007Z,79.43
2018-12-27T01:43:31.928Z,71.57
2018-12-27T01:46:02.735Z,67.13
2018-12-27T01:48:33.552Z,70.23
2018-12-27T01:51:04.608Z,74.47
2018-12-27T01:53:35.545Z,73.00
2018-12-27T01:56:06.509Z,77.30
2018-12-27T01:58:37.635Z,75.30
2018-12-27T02:19:53.226Z,70.83
2018-12-27T02:22:24.047Z,72.67
2018-12-27T02:24:54.970Z,77.23
2018-12-27T02:27:25.865Z,69.67
2018-12-27T02:29:56.783Z,73.70
2018-12-27T02:32:27.730Z,71.00
2018-12-27T02:34:58.899Z,77.13
2018-12-27T02:37:29.816Z,72.20
2018-12-27T02:40:00.786Z,71.00
2018-12-27T02:42:31.778Z,73.23
2018-12-27T02:45:04.253Z,75.13
2018-12-27T02:47:35.205Z,76.93
2018-12-27T02:50:06.140Z,81.27
2018-12-27T02:52:37.031Z,67.70
2018-12-27T02:55:07.948Z,76.80
2018-12-27T02:57:38.968Z,73.13
2018-12-27T03:00:10.005Z,75.70
2018-12-27T03:02:51.952Z,75.60
2018-12-27T03:05:22.914Z,72.47
2018-12-27T03:07:53.740Z,69.50
2018-12-27T03:10:24.724Z,77.13
2018-12-27T03:12:55.657Z,76.30
2018-12-27T03:15:26.587Z,74.73
2018-12-27T03:17:57.494Z,76.13
2018-12-27T03:20:28.450Z,80.50
2018-12-27T03:22:59.486Z,71.73
2018-12-27T03:25:31.471Z,71.77
2018-12-27T03:28:02.418Z,75.07
2018-12-27T03:30:33.427Z,68.60
2018-12-27T03:33:04.382Z,72.33
2018-12-27T03:35:35.306Z,71.07
2018-12-27T03:38:06.229Z,78.87
2018-12-27T03:40:37.121Z,74.20
2018-12-27T03:43:08.975Z,73.93
2018-12-27T03:45:39.897Z,76.30
2018-12-27T03:48:10.800Z,78.73
2018-12-27T03:50:41.725Z,82.83
2018-12-27T03:53:12.712Z,76.60
2018-12-27T03:55:43.680Z,81.93
2018-12-27T03:58:14.786Z,82.13
2018-12-27T04:00:45.880Z,82.60
2018-12-27T04:03:16.775Z,84.00
2018-12-27T04:05:47.778Z,93.07
2018-12-27T04:08:18.695Z,95.33
2018-12-27T04:10:49.666Z,78.70
2018-12-27T04:13:20.676Z,90.30
2018-12-27T04:15:51.460Z,91.93
2018-12-27T04:18:22.174Z,85.10
2018-12-27T04:20:53.010Z,89.80
2018-12-27T04:23:24.283Z,85.03
2018-12-27T04:25:55.620Z,87.57
2018-12-27T04:28:26.366Z,90.80
2018-12-27T04:30:58.276Z,79.80
2018-12-27T04:33:29.542Z,82.90
2018-12-27T04:36:01.376Z,94.57
2018-12-27T04:38:32.128Z,84.03
2018-12-27T04:41:02.930Z,84.80
2018-12-27T04:43:34.515Z,89.33
2018-12-27T04:46:05.307Z,86.33
2018-12-27T04:48:36.100Z,95.77
2018-12-27T04:51:06.987Z,91.73
2018-12-27T04:53:38.727Z,86.63
2018-12-27T04:56:09.579Z,87.40
2018-12-27T04:58:40.542Z,85.30
2018-12-27T05:01:11.286Z,93.07
2018-12-27T05:03:42.009Z,85.37
2018-12-27T05:06:12.715Z,91.17
2018-12-27T05:08:43.515Z,85.90
2018-12-27T05:11:14.338Z,94.20
2018-12-27T05:13:45.134Z,89.47
2018-12-27T05:16:15.939Z,86.50
2018-12-27T05:18:46.630Z,93.57
2018-12-27T05:21:17.341Z,89.07
2018-12-27T05:23:48.105Z,105.33
2018-12-27T05:26:18.851Z,90.13
2018-12-27T05:28:49.705Z,97.40
2018-12-27T05:31:20.539Z,89.37
2018-12-27T05:33:51.320Z,87.97
2018-12-27T05:36:22.155Z,88.60
2018-12-27T05:38:53.108Z,85.77
2018-12-27T05:41:23.915Z,84.37
2018-12-27T05:43:54.742Z,84.03
2018-12-27T05:46:25.618Z,87.50
2018-12-27T05:48:56.342Z,81.53
2018-12-27T05:51:27.002Z,95.93
2018-12-27T05:53:57.826Z,103.50
2018-12-27T05:56:28.585Z,86.83
2018-12-27T05:58:59.316Z,90.77
2018-12-27T06:01:30.053Z,93.77
2018-12-27T06:04:00.953Z,95.83
2018-12-27T06:06:32.776Z,91.30
2018-12-27T06:09:06.141Z,92.23
2018-12-27T06:11:36.813Z,86.17
2018-12-27T06:14:07.611Z,91.53
2018-12-27T06:16:38.465Z,85.33
2018-12-27T06:19:09.304Z,96.03
2018-12-27T06:21:40.117Z,90.57
2018-12-27T06:24:10.959Z,86.97
2018-12-27T06:26:41.717Z,90.33
2018-12-27T06:29:12.509Z,85.10
2018-12-27T06:31:43.327Z,85.43
2018-12-27T06:34:14.080Z,84.77
2018-12-27T06:36:44.815Z,88.27
2018-12-27T06:39:15.563Z,83.73
2018-12-27T06:41:46.342Z,81.37
2018-12-27T06:44:17.059Z,80.50
2018-12-27T06:46:47.932Z,78.73
2018-12-27T06:49:18.706Z,82.93
2018-12-27T06:51:49.477Z,71.93
2018-12-27T06:54:20.281Z,66.93
2018-12-27T06:56:51.044Z,76.57
2018-12-27T06:59:21.825Z,78.97
2018-12-27T07:01:52.631Z,72.43
2018-12-27T07:04:23.502Z,70.83
2018-12-27T07:06:54.326Z,73.73
2018-12-27T07:09:25.121Z,75.93
2018-12-27T07:11:56.491Z,67.13
2018-12-27T07:14:28.677Z,69.03
2018-12-27T07:17:01.865Z,72.07
2018-12-27T07:19:32.749Z,68.33
2018-12-27T07:22:03.543Z,71.70
2018-12-27T07:24:34.292Z,71.23
2018-12-27T07:27:05.062Z,69.33
2018-12-27T07:29:35.718Z,69.37
2018-12-27T07:32:06.542Z,67.13
2018-12-27T07:34:37.488Z,65.07
2018-12-27T07:37:08.175Z,62.00
2018-12-27T07:39:38.974Z,62.40
2018-12-27T07:42:09.771Z,64.73
2018-12-27T07:44:40.648Z,68.37
2018-12-27T07:47:11.479Z,62.37
2018-12-27T07:49:42.287Z,69.87
2018-12-27T07:52:13.145Z,61.07
2018-12-27T07:54:43.987Z,62.63
2018-12-27T07:57:14.743Z,61.63
2018-12-27T07:59:45.483Z,63.20
2018-12-27T08:02:16.209Z,61.47
2018-12-27T08:04:46.972Z,64.80
2018-12-27T08:07:17.788Z,60.70
2018-12-27T08:09:48.643Z,61.73
2018-12-27T08:12:19.456Z,61.90
2018-12-27T08:14:50.289Z,61.00
2018-12-27T08:17:21.117Z,59.93
2018-12-27T08:19:51.935Z,62.83
2018-12-27T08:22:22.747Z,65.30
2018-12-27T08:24:53.576Z,58.10
2018-12-27T08:27:24.243Z,62.30
2018-12-27T08:29:58.554Z,60.37
2018-12-27T08:32:29.723Z,67.37
2018-12-27T08:35:00.511Z,63.03
2018-12-27T08:37:47.176Z,59.07
2018-12-27T08:40:20.543Z,62.57
2018-12-27T08:42:51.674Z,64.30
2018-12-27T08:45:22.505Z,65.90
2018-12-27T08:47:56.194Z,62.83
2018-12-27T08:50:27.117Z,64.33
2018-12-27T08:52:57.827Z,66.53
2018-12-27T08:55:32.631Z,68.07
2018-12-27T08:58:03.382Z,63.53
2018-12-27T09:00:34.155Z,67.07
2018-12-27T09:03:05.092Z,71.87
2018-12-27T09:05:35.818Z,65.90
2018-12-27T09:08:06.613Z,64.70
2018-12-27T09:10:37.492Z,60.93
2018-12-27T09:13:08.240Z,66.23
2018-12-27T09:15:39.061Z,57.07
2018-12-27T09:18:09.770Z,54.23
2018-12-27T09:20:40.636Z,59.50
2018-12-27T09:23:11.851Z,56.97
2018-12-27T09:25:42.582Z,57.43
2018-12-27T09:28:13.349Z,60.17
2018-12-27T09:30:44.171Z,59.97
2018-12-27T09:33:14.960Z,57.07
2018-12-27T09:35:45.779Z,60.67
2018-12-27T09:38:16.617Z,61.27
2018-12-27T09:40:47.406Z,58.30
2018-12-27T09:43:18.160Z,57.20
2018-12-27T09:45:48.999Z,66.10
2018-12-27T09:48:19.805Z,54.87
2018-12-27T09:50:50.640Z,67.17
2018-12-27T09:53:21.482Z,57.93
2018-12-27T09:55:52.287Z,62.27
2018-12-27T09:58:23.083Z,64.00
2018-12-27T10:00:53.935Z,57.33
2018-12-27T10:03:24.752Z,58.07
2018-12-27T10:05:55.542Z,56.60
2018-12-27T10:08:26.314Z,57.23
2018-12-27T10:10:57.130Z,65.70
2018-12-27T10:13:27.874Z,58.93
2018-12-27T10:15:58.646Z,59.43
2018-12-27T10:18:29.407Z,57.40
2018-12-27T10:21:01.218Z,58.13
2018-12-27T10:23:32.091Z,57.90
2018-12-27T10:26:06.991Z,55.27
2018-12-27T10:28:38.049Z,56.30
2018-12-27T10:31:08.891Z,58.77
2018-12-27T10:33:39.714Z,55.03
2018-12-27T10:36:10.565Z,63.13
2018-12-27T10:38:41.535Z,53.83
2018-12-27T10:41:12.366Z,52.93
2018-12-27T10:43:43.152Z,53.70
2018-12-27T10:46:14.064Z,56.80
2018-12-27T10:48:44.946Z,53.80
2018-12-27T10:51:15.743Z,51.00
2018-12-27T10:53:46.479Z,49.03
2018-12-27T10:56:17.250Z,50.17
2018-12-27T10:58:48.169Z,49.93
2018-12-27T11:01:18.970Z,52.07
2018-12-27T11:03:49.660Z,50.17
2018-12-27T11:06:20.432Z,51.07
2018-12-27T11:08:51.106Z,51.17
2018-12-27T11:11:21.841Z,55.50
2018-12-27T11:13:52.576Z,51.63
2018-12-27T11:16:23.483Z,49.10
2018-12-27T11:18:54.270Z,53.13
2018-12-27T11:21:25.010Z,50.00
2018-12-27T11:23:55.781Z,54.40
2018-12-27T11:26:26.502Z,49.23
2018-12-27T11:28:57.350Z,50.13
2018-12-27T11:31:31.836Z,52.27
2018-12-27T11:34:04.514Z,50.27
2018-12-27T11:36:38.309Z,49.63
2018-12-27T11:39:17.245Z,51.90
2018-12-27T11:41:47.979Z,48.70
2018-12-27T11:44:18.746Z,47.00
2018-12-27T11:46:49.644Z,51.63
2018-12-27T11:49:20.392Z,46.97
2018-12-27T11:51:51.219Z,50.53
2018-12-27T11:54:22.039Z,49.73
2018-12-27T11:56:52.854Z,52.07
2018-12-27T11:59:23.595Z,52.43
2018-12-27T12:01:56.101Z,51.03
2018-12-27T12:04:26.766Z,50.13
2018-12-27T12:06:57.531Z,52.97
2018-12-27T12:09:30.143Z,49.53
2018-12-27T12:12:00.973Z,53.03
2018-12-27T12:14:33.734Z,53.17
2018-12-27T12:17:08.518Z,47.10
2018-12-27T12:19:39.442Z,52.40
2018-12-27T12:22:10.383Z,50.87
2018-12-27T12:24:41.618Z,47.93
2018-12-27T12:27:12.391Z,49.43
2018-12-27T12:29:43.087Z,49.73
2018-12-27T12:32:13.885Z,47.73
2018-12-27T12:34:44.562Z,47.37
2018-12-27T12:37:15.616Z,53.83
2018-12-27T12:39:47.883Z,53.33
2018-12-27T12:42:32.232Z,46.20
2018-12-27T12:44:51.137Z,46.90
2018-12-27T12:47:21.955Z,48.23
2018-12-27T12:49:52.714Z,47.47
2018-12-27T12:52:23.466Z,48.17
2018-12-27T12:54:54.287Z,50.90
2018-12-27T12:57:25.051Z,50.60
2018-12-27T12:59:55.820Z,54.00
2018-12-27T13:02:26.559Z,47.50
2018-12-27T13:04:58.723Z,55.00
2018-12-27T13:07:29.499Z,51.77
2018-12-27T13:10:00.394Z,50.13
2018-12-27T13:12:31.106Z,50.20
2018-12-27T13:15:01.975Z,53.07
2018-12-27T13:17:32.719Z,48.43
2018-12-27T13:20:03.547Z,49.97
2018-12-27T13:22:34.262Z,48.17
2018-12-27T13:25:05.188Z,51.83
2018-12-27T13:27:35.881Z,49.07
2018-12-27T13:30:07.069Z,52.10
2018-12-27T13:32:37.833Z,49.20
2018-12-27T13:35:08.638Z,48.43
2018-12-27T13:37:39.401Z,50.97
2018-12-27T13:40:10.244Z,50.07
2018-12-27T13:42:41.187Z,50.87
2018-12-27T13:45:14.036Z,50.10
2018-12-27T13:47:49.574Z,54.43
2018-12-27T13:50:20.519Z,52.17
2018-12-27T13:52:51.379Z,50.67
2018-12-27T13:55:22.293Z,51.10
2018-12-27T13:57:53.128Z,48.03
2018-12-27T14:00:23.953Z,43.70
2018-12-27T14:02:54.775Z,47.83
2018-12-27T14:05:25.554Z,47.33
2018-12-27T14:07:56.397Z,49.23
2018-12-27T14:10:27.202Z,48.60
2018-12-27T14:12:58.440Z,45.47
2018-12-27T14:15:29.416Z,52.53
2018-12-27T14:18:00.131Z,48.83
2018-12-27T14:20:30.967Z,48.57
2018-12-27T14:23:01.699Z,47.30
2018-12-27T14:25:32.487Z,50.83
2018-12-27T14:28:03.272Z,54.33
2018-12-27T14:30:34.087Z,46.77
2018-12-27T14:33:04.845Z,52.93
2018-12-27T14:35:35.623Z,46.07
2018-12-27T14:38:06.368Z,51.33
2018-12-27T14:40:37.183Z,48.90
2018-12-27T14:43:07.929Z,48.70
2018-12-27T14:45:38.573Z,51.27
2018-12-27T14:48:09.363Z,49.27
2018-12-27T14:50:40.227Z,52.23
2018-12-27T14:53:11.055Z,51.87
2018-12-27T14:55:41.835Z,47.40
2018-12-27T14:58:12.691Z,51.37
2018-12-27T15:00:43.495Z,48.73
2018-12-27T15:03:14.305Z,50.60
2018-12-27T15:05:45.117Z,57.23
2018-12-27T15:08:15.868Z,50.43
2018-12-27T15:10:46.670Z,51.87
2018-12-27T15:13:17.545Z,53.17
2018-12-27T15:15:48.330Z,55.03
2018-12-27T15:18:19.150Z,54.93
2018-12-27T15:20:49.874Z,56.43
2018-12-27T15:23:20.780Z,62.63
2018-12-27T15:25:51.599Z,54.13
2018-12-27T15:28:22.485Z,57.57
2018-12-27T15:30:53.277Z,55.10
2018-12-27T15:33:24.035Z,53.47
2018-12-27T15:35:54.843Z,51.77
2018-12-27T15:38:25.538Z,53.83
2018-12-27T15:40:56.356Z,62.73
2018-12-27T15:43:27.118Z,54.30
2018-12-27T15:45:57.878Z,52.23
2018-12-27T15:48:28.678Z,59.47
2018-12-27T15:50:59.431Z,59.33
2018-12-27T15:53:30.159Z,61.20
2018-12-27T15:56:01.010Z,59.67
2018-12-27T15:58:31.789Z,57.50
2018-12-27T16:01:02.563Z,62.60
2018-12-27T16:06:05.843Z,65.27
2018-12-27T16:08:36.721Z,63.57
2018-12-27T16:11:07.559Z,61.67
2018-12-27T16:13:38.205Z,70.50
2018-12-27T16:16:09.047Z,59.90
2018-12-27T16:18:39.871Z,65.90
2018-12-27T16:21:10.678Z,63.63
2018-12-27T16:23:41.459Z,62.97
2018-12-27T16:26:12.292Z,65.47
2018-12-27T16:28:43.063Z,78.70
2018-12-27T16:31:13.897Z,70.37
2018-12-27T16:33:44.612Z,67.17
2018-12-27T16:36:15.499Z,67.87
2018-12-27T16:38:46.202Z,65.30
2018-12-27T16:41:17.032Z,65.90
2018-12-27T16:43:48.032Z,68.77
2018-12-27T16:46:18.945Z,71.50
2018-12-27T16:48:49.827Z,72.60
2018-12-27T16:51:20.659Z,76.70
2018-12-27T16:53:51.416Z,74.60
2018-12-27T16:56:22.275Z,74.40
2018-12-27T16:58:53.016Z,75.00
2018-12-27T17:01:23.766Z,74.10
2018-12-27T17:03:54.592Z,78.77
2018-12-27T17:06:25.476Z,74.43
2018-12-27T17:08:56.283Z,71.27
2018-12-27T17:11:27.105Z,72.23
2018-12-27T17:13:57.969Z,75.53
2018-12-27T17:16:28.815Z,79.60
2018-12-27T17:18:59.558Z,81.63
2018-12-27T17:21:31.817Z,80.57
2018-12-27T17:24:03.728Z,83.27
2018-12-27T17:26:34.592Z,82.90
2018-12-27T17:29:05.434Z,79.13
2018-12-27T17:31:36.311Z,82.73
2018-12-27T17:34:07.044Z,90.03
2018-12-27T17:36:37.910Z,84.70
2018-12-27T17:39:09.107Z,88.60
2018-12-27T17:41:40.004Z,84.87
2018-12-27T17:44:10.867Z,90.80
2018-12-27T17:46:41.625Z,89.17
2018-12-27T17:49:12.424Z,91.90
2018-12-27T17:51:43.226Z,96.67
2018-12-27T17:54:14.093Z,95.93
2018-12-27T17:56:44.957Z,91.30
2018-12-27T17:59:15.782Z,87.03
2018-12-27T18:01:46.665Z,92.17
2018-12-27T18:04:17.616Z,89.93
2018-12-27T18:06:48.493Z,98.73
2018-12-27T18:09:19.507Z,95.20
2018-12-27T18:11:50.301Z,88.93
2018-12-27T18:14:21.158Z,96.87
2018-12-27T18:16:52.003Z,97.17
2018-12-27T18:19:22.893Z,88.73
2018-12-27T18:21:53.702Z,93.53
2018-12-27T18:24:24.536Z,88.00
2018-12-27T18:26:55.483Z,101.17
2018-12-27T18:29:26.363Z,106.43
2018-12-27T18:31:57.199Z,100.23
2018-12-27T18:34:28.919Z,102.97
2018-12-27T18:37:00.526Z,110.50
2018-12-27T18:39:31.269Z,122.07
2018-12-27T18:42:02.098Z,103.30
2018-12-27T18:44:32.938Z,109.20
2018-12-27T18:47:03.769Z,108.53
2018-12-27T18:49:34.614Z,104.37
2018-12-27T18:52:05.451Z,113.10
2018-12-27T18:54:36.419Z,112.40
2018-12-27T18:57:07.226Z,110.50
2018-12-27T18:59:37.985Z,117.47
2018-12-27T19:02:08.941Z,106.83
2018-12-27T19:04:39.703Z,116.17
2018-12-27T19:07:10.679Z,112.03
2018-12-27T19:09:41.466Z,107.20
2018-12-27T19:12:48.346Z,116.13
2018-12-27T19:15:23.337Z,112.23
2018-12-27T19:18:21.550Z,116.50
2018-12-27T19:20:58.931Z,120.10
2018-12-27T19:23:31.154Z,102.37
2018-12-27T19:26:01.927Z,119.57
2018-12-27T19:28:32.836Z,116.37
2018-12-27T19:31:03.654Z,132.13
2018-12-27T19:33:34.462Z,120.10
2018-12-27T19:36:05.352Z,123.40
2018-12-27T19:38:36.291Z,126.43
2018-12-27T19:41:07.087Z,114.47
2018-12-27T19:43:37.982Z,120.37
2018-12-27T19:46:08.862Z,117.30
2018-12-27T19:48:39.665Z,105.70
2018-12-27T19:51:10.506Z,110.03
2018-12-27T19:53:41.284Z,117.63
2018-12-27T19:56:12.152Z,105.10
2018-12-27T19:58:42.957Z,112.17
2018-12-27T20:01:13.778Z,122.10
2018-12-27T20:03:44.630Z,118.53
2018-12-27T20:06:15.427Z,111.37
2018-12-27T20:08:46.261Z,106.10
2018-12-27T20:11:17.058Z,116.97
2018-12-27T20:13:47.812Z,110.40
2018-12-27T20:16:18.611Z,114.87
2018-12-27T20:18:49.526Z,116.30
2018-12-27T20:21:20.423Z,103.67
2018-12-27T20:23:51.205Z,114.60
2018-12-27T20:26:22.087Z,108.20
2018-12-27T20:28:52.811Z,121.10
2018-12-27T20:31:23.690Z,109.30
2018-12-27T20:33:54.436Z,113.07
2018-12-27T20:36:25.170Z,109.93
2018-12-27T20:38:55.927Z,122.60
2018-12-27T20:41:26.714Z,107.37
2018-12-27T20:44:22.006Z,114.87
2018-12-27T20:46:52.754Z,120.53
2018-12-27T20:49:24.470Z,108.13
2018-12-27T20:51:55.295Z,115.70
2018-12-27T20:54:26.097Z,122.10
2018-12-27T20:56:57.952Z,120.17
2018-12-27T20:59:28.636Z,107.80
2018-12-27T21:01:59.515Z,113.30
2018-12-27T21:04:30.285Z,110.77
2018-12-27T21:07:01.337Z,120.27
2018-12-27T21:09:32.051Z,127.20
2018-12-27T21:12:02.724Z,120.03
2018-12-27T21:14:34.481Z,122.10
2018-12-27T21:17:05.448Z,115.67
2018-12-27T21:19:36.282Z,142.80
2018-12-27T21:22:07.228Z,143.43
2018-12-27T21:24:38.052Z,131.67
2018-12-27T21:27:08.814Z,132.87
2018-12-27T21:29:39.677Z,127.47
2018-12-27T21:32:10.424Z,126.13
2018-12-27T21:34:41.277Z,134.17
2018-12-27T21:37:12.086Z,154.77
2018-12-27T21:39:42.959Z,136.27
2018-12-27T21:42:14.057Z,149.57
2018-12-27T21:44:44.881Z,135.20
2018-12-27T21:47:15.820Z,129.97
2018-12-27T21:49:46.599Z,142.23
2018-12-27T21:52:17.619Z,156.03
2018-12-27T21:54:48.458Z,143.87
2018-12-27T21:57:19.364Z,144.50
2018-12-27T21:59:50.071Z,158.27
2018-12-27T22:02:22.610Z,155.90
2018-12-27T22:04:53.490Z,155.40
2018-12-27T22:07:24.245Z,146.97
2018-12-27T22:09:55.059Z,143.33
2018-12-27T22:12:25.940Z,149.17
2018-12-27T22:14:56.784Z,156.40
2018-12-27T22:17:27.602Z,140.57
2018-12-27T22:19:58.363Z,149.73
2018-12-27T22:22:29.165Z,139.67
2018-12-27T22:24:59.959Z,146.17
2018-12-27T22:27:30.750Z,149.00
2018-12-27T22:30:01.603Z,148.03
2018-12-27T22:32:32.387Z,155.57
2018-12-27T22:35:03.145Z,153.23
2018-12-27T22:37:33.874Z,156.90
2018-12-27T22:40:05.138Z,166.00
2018-12-27T22:42:37.198Z,167.77
2018-12-27T22:45:08.177Z,169.27
2018-12-27T22:47:38.935Z,168.60
2018-12-27T22:50:09.911Z,167.37
2018-12-27T22:52:40.638Z,169.30
2018-12-27T22:55:12.531Z,148.23
2018-12-27T22:57:43.319Z,152.27
2018-12-27T23:00:34.594Z,148.33
2018-12-27T23:03:05.390Z,146.30
2018-12-27T23:05:36.190Z,168.13
2018-12-27T23:08:06.963Z,162.57
2018-12-27T23:10:37.750Z,156.03
2018-12-27T23:13:08.570Z,156.80
2018-12-27T23:15:39.343Z,177.77
2018-12-27T23:18:10.369Z,167.77
2018-12-27T23:20:41.200Z,149.53
2018-12-27T23:23:13.016Z,162.10
2018-12-27T23:25:43.812Z,164.77
2018-12-27T23:28:14.545Z,153.40
2018-12-27T23:30:45.302Z,164.83
2018-12-27T23:33:16.030Z,164.03
2018-12-27T23:35:46.812Z,161.57
2018-12-27T23:38:17.615Z,156.00
2018-12-27T23:40:48.519Z,163.23
2018-12-27T23:43:19.258Z,157.57
2018-12-27T23:45:49.935Z,157.80
2018-12-27T23:48:20.890Z,148.53
2018-12-27T23:50:51.678Z,164.17
2018-12-27T23:53:24.327Z,168.77
2018-12-27T23:55:55.201Z,151.80
2018-12-27T23:58:26.016Z,179.83
